Time;durP1;ratioP1;P1;durP2;ratioP2;P2;SDS_P1;SDS_P2;PMS_P1;PMS_P2;Temp;Humidity;BMP_temperature;BMP_pressure;BME280_temperature;BME280_humidity;BME280_pressure;Samples;Min_cycle;Max_cycle;Signal;HPM_P1;HPM_P2
2022/09/02 00:01:40;;;;;;;6.70;6.30;;;;;;;;;;5070455;28;20448;-76
2022/09/02 00:04:08;;;;;;;6.73;6.23;;;;;;;;;;5070360;28;20448;-76
2022/09/02 00:06:35;;;;;;;6.30;5.80;;;;;;;;;;5070343;28;20472;-76
2022/09/02 00:09:03;;;;;;;6.83;6.40;;;;;;;;;;5070611;28;20527;-76
2022/09/02 00:11:31;;;;;;;6.90;6.20;;;;;;;;;;5070934;28;20444;-76
2022/09/02 00:14:01;;;;;;;6.73;6.33;;;;;;;;;;5070072;28;20498;-77
2022/09/02 00:16:30;;;;;;;7.07;6.60;;;;;;;;;;5070468;28;20481;-76
2022/09/02 00:18:57;;;;;;;7.33;6.83;;;;;;;;;;5070187;28;20460;-76
2022/09/02 00:21:25;;;;;;;6.63;6.13;;;;;;;;;;5070916;28;20445;-75
2022/09/02 00:23:53;;;;;;;6.80;6.40;;;;;;;;;;5070431;28;20445;-76
2022/09/02 00:26:20;;;;;;;6.57;6.17;;;;;;;;;;5070549;28;20457;-76
2022/09/02 00:28:47;;;;;;;7.57;6.97;;;;;;;;;;5070952;28;20444;-76
2022/09/02 00:31:16;;;;;;;6.60;6.17;;;;;;;;;;5070176;28;20517;-76
2022/09/02 00:33:43;;;;;;;6.80;6.40;;;;;;;;;;5069876;28;20837;-77
2022/09/02 00:36:11;;;;;;;6.60;6.20;;;;;;;;;;5070571;28;20530;-75
2022/09/02 00:38:38;;;;;;;7.07;6.60;;;;;;;;;;5070304;28;20455;-76
2022/09/02 00:41:07;;;;;;;7.13;6.70;;;;;;;;;;5070504;28;20444;-75
2022/09/02 00:43:45;;;;;;;7.10;6.70;;;;;;;;;;5070102;28;20749;-77
2022/09/02 00:46:13;;;;;;;7.10;6.50;;;;;;;;;;5070052;28;20441;-77
2022/09/02 00:48:44;;;;;;;7.10;6.47;;;;;;;;;;5070172;28;20836;-76
2022/09/02 00:51:11;;;;;;;6.83;6.23;;;;;;;;;;5070271;28;20513;-77
2022/09/02 00:53:39;;;;;;;7.30;6.80;;;;;;;;;;5069778;28;20580;-75
2022/09/02 00:56:06;;;;;;;7.50;7.00;;;;;;;;;;5069853;28;20491;-76
2022/09/02 00:58:35;;;;;;;7.30;6.60;;;;;;;;;;5069891;28;20453;-76
2022/09/02 01:01:02;;;;;;;7.03;6.53;;;;;;;;;;5070308;28;20563;-76
2022/09/02 01:03:31;;;;;;;7.10;6.60;;;;;;;;;;5069907;28;20558;-77
2022/09/02 01:06:00;;;;;;;6.20;5.80;;;;;;;;;;5073095;28;20448;-77
2022/09/02 01:08:32;;;;;;;6.50;6.10;;;;;;;;;;5073462;28;20448;-76
2022/09/02 01:11:00;;;;;;;7.47;6.83;;;;;;;;;;5065861;28;20525;-75
2022/09/02 01:13:28;;;;;;;6.67;6.27;;;;;;;;;;5053445;28;20453;-75
2022/09/02 01:15:58;;;;;;;7.57;7.07;;;;;;;;;;5053691;28;20445;-77
2022/09/02 01:18:27;;;;;;;7.07;6.57;;;;;;;;;;5053509;28;20484;-76
2022/09/02 01:20:55;;;;;;;7.83;7.10;;;;;;;;;;5053289;28;20472;-77
2022/09/02 01:23:23;;;;;;;7.20;6.70;;;;;;;;;;5053180;28;20459;-76
2022/09/02 01:25:50;;;;;;;8.60;6.70;;;;;;;;;;5053036;28;20453;-76
2022/09/02 01:28:19;;;;;;;7.47;6.87;;;;;;;;;;5053517;28;20864;-76
2022/09/02 01:30:47;;;;;;;7.30;6.80;;;;;;;;;;5053253;28;20875;-76
2022/09/02 01:33:15;;;;;;;6.57;6.07;;;;;;;;;;5052360;28;20476;-76
2022/09/02 01:35:42;;;;;;;7.20;6.70;;;;;;;;;;5052809;28;20453;-76
2022/09/02 01:38:09;;;;;;;7.10;6.60;;;;;;;;;;5052629;28;20880;-76
2022/09/02 01:40:37;;;;;;;7.07;6.50;;;;;;;;;;5053282;28;20768;-76
2022/09/02 01:43:08;;;;;;;7.03;6.50;;;;;;;;;;5053099;28;20446;-77
2022/09/02 01:45:35;;;;;;;7.47;6.87;;;;;;;;;;5053131;28;20450;-76
2022/09/02 01:48:02;;;;;;;7.43;6.83;;;;;;;;;;5053139;28;21011;-76
2022/09/02 01:50:30;;;;;;;6.70;6.10;;;;;;;;;;5053440;28;20863;-76
2022/09/02 01:52:57;;;;;;;6.70;6.20;;;;;;;;;;5052847;28;20452;-76
2022/09/02 01:55:24;;;;;;;6.83;6.33;;;;;;;;;;5052677;28;20941;-76
2022/09/02 01:57:52;;;;;;;7.43;6.93;;;;;;;;;;5052481;28;20493;-76
2022/09/02 02:00:20;;;;;;;7.37;6.83;;;;;;;;;;5056248;28;20480;-77
2022/09/02 02:02:47;;;;;;;6.73;6.33;;;;;;;;;;5067985;28;20450;-76
2022/09/02 02:05:14;;;;;;;7.23;6.50;;;;;;;;;;5054378;28;20454;-76
2022/09/02 02:07:41;;;;;;;7.03;6.53;;;;;;;;;;5053164;28;20461;-76
2022/09/02 02:10:10;;;;;;;7.90;7.30;;;;;;;;;;5053026;28;20454;-76
2022/09/02 02:12:37;;;;;;;7.30;6.70;;;;;;;;;;5052563;28;20468;-76
2022/09/02 02:15:06;;;;;;;7.10;6.60;;;;;;;;;;5052639;28;20449;-76
2022/09/02 02:17:33;;;;;;;7.10;6.60;;;;;;;;;;5052214;28;20500;-77
2022/09/02 02:20:01;;;;;;;7.47;6.97;;;;;;;;;;5052863;28;20450;-76
2022/09/02 02:22:28;;;;;;;7.20;6.70;;;;;;;;;;5052907;28;20449;-75
2022/09/02 02:24:55;;;;;;;7.23;6.73;;;;;;;;;;5052928;28;20452;-77
2022/09/02 02:27:22;;;;;;;6.90;6.50;;;;;;;;;;5052971;28;20469;-77
2022/09/02 02:29:49;;;;;;;7.30;6.70;;;;;;;;;;5052787;28;20814;-76
2022/09/02 02:32:18;;;;;;;6.70;6.20;;;;;;;;;;5052538;28;20449;-77
2022/09/02 02:34:45;;;;;;;7.77;7.27;;;;;;;;;;5053279;28;20473;-76
2022/09/02 02:37:12;;;;;;;7.20;6.70;;;;;;;;;;5052850;28;20493;-77
2022/09/02 02:39:39;;;;;;;7.97;7.20;;;;;;;;;;5052291;28;20438;-76
2022/09/02 02:42:07;;;;;;;6.67;6.17;;;;;;;;;;5052322;28;20471;-76
2022/09/02 02:44:34;;;;;;;7.07;6.57;;;;;;;;;;5051578;28;20532;-76
2022/09/02 02:47:01;;;;;;;6.93;6.43;;;;;;;;;;5052218;28;20515;-75
2022/09/02 02:49:29;;;;;;;7.03;6.30;;;;;;;;;;5051824;28;20483;-76
2022/09/02 02:51:56;;;;;;;6.33;5.90;;;;;;;;;;5051653;28;20450;-76
2022/09/02 02:54:23;;;;;;;6.27;5.87;;;;;;;;;;5051689;28;20937;-78
2022/09/02 02:56:50;;;;;;;6.73;6.20;;;;;;;;;;5054599;28;20481;-76
2022/09/02 02:59:17;;;;;;;6.50;6.00;;;;;;;;;;5056134;28;21081;-76
2022/09/02 03:01:44;;;;;;;6.97;6.53;;;;;;;;;;5052613;28;20454;-76
2022/09/02 03:04:11;;;;;;;6.60;6.00;;;;;;;;;;5051581;28;20445;-77
2022/09/02 03:06:40;;;;;;;6.83;6.27;;;;;;;;;;5051907;28;20464;-76
2022/09/02 03:09:07;;;;;;;6.80;6.30;;;;;;;;;;5051696;28;20761;-76
2022/09/02 03:11:34;;;;;;;6.03;5.60;;;;;;;;;;5063663;28;20451;-76
2022/09/02 03:14:01;;;;;;;6.03;5.60;;;;;;;;;;5071663;28;20444;-75
2022/09/02 03:16:28;;;;;;;8.87;6.13;;;;;;;;;;5071356;28;20975;-76
2022/09/02 03:18:55;;;;;;;5.97;5.53;;;;;;;;;;5072868;28;20467;-77
2022/09/02 03:21:22;;;;;;;6.90;6.27;;;;;;;;;;5082956;28;20447;-76
2022/09/02 03:23:51;;;;;;;6.57;6.17;;;;;;;;;;5082341;28;20479;-76
2022/09/02 03:26:19;;;;;;;6.30;5.80;;;;;;;;;;5083375;28;20464;-76
2022/09/02 03:28:46;;;;;;;6.60;6.10;;;;;;;;;;5081381;28;20981;-76
2022/09/02 03:31:15;;;;;;;6.20;5.80;;;;;;;;;;5074300;28;20448;-76
2022/09/02 03:33:42;;;;;;;6.33;5.80;;;;;;;;;;5070710;28;20995;-76
2022/09/02 03:36:09;;;;;;;6.87;6.37;;;;;;;;;;5071193;28;20974;-75
2022/09/02 03:38:36;;;;;;;6.60;6.03;;;;;;;;;;5071060;28;20480;-76
2022/09/02 03:41:05;;;;;;;7.40;6.50;;;;;;;;;;5072616;28;20862;-77
2022/09/02 03:43:32;;;;;;;6.67;6.17;;;;;;;;;;5071146;28;20437;-75
2022/09/02 03:45:59;;;;;;;7.07;6.00;;;;;;;;;;5071066;28;20440;-76
2022/09/02 03:48:28;;;;;;;6.87;6.30;;;;;;;;;;5070687;28;21002;-77
2022/09/02 03:50:55;;;;;;;6.57;6.07;;;;;;;;;;5079856;28;20483;-76
2022/09/02 03:53:22;;;;;;;6.47;5.97;;;;;;;;;;5086443;28;20453;-76
2022/09/02 03:55:49;;;;;;;6.47;5.80;;;;;;;;;;5086083;28;20478;-76
2022/09/02 03:58:18;;;;;;;9.60;7.03;;;;;;;;;;5084207;28;20481;-76
2022/09/02 04:00:45;;;;;;;7.10;6.13;;;;;;;;;;5083767;28;20447;-75
2022/09/02 04:03:12;;;;;;;6.93;6.40;;;;;;;;;;5084168;28;20452;-76
2022/09/02 04:05:39;;;;;;;6.63;6.13;;;;;;;;;;5070962;28;20956;-76
2022/09/02 04:08:06;;;;;;;6.77;6.20;;;;;;;;;;5071028;28;20510;-76
2022/09/02 04:10:33;;;;;;;7.30;6.60;;;;;;;;;;5071000;28;20461;-76
2022/09/02 04:13:00;;;;;;;7.07;6.57;;;;;;;;;;5070431;28;20457;-76
2022/09/02 04:15:28;;;;;;;6.60;6.10;;;;;;;;;;5070882;28;20490;-78
2022/09/02 04:17:55;;;;;;;7.07;6.47;;;;;;;;;;5070361;28;20488;-76
2022/09/02 04:20:22;;;;;;;6.67;6.17;;;;;;;;;;5070804;28;21285;-76
2022/09/02 04:22:50;;;;;;;7.23;6.63;;;;;;;;;;5070588;28;20615;-76
2022/09/02 04:25:17;;;;;;;7.70;7.00;;;;;;;;;;5069472;28;20444;-76
2022/09/02 04:27:44;;;;;;;6.73;6.17;;;;;;;;;;5070545;28;20903;-76
2022/09/02 04:30:15;;;;;;;6.40;5.93;;;;;;;;;;5070694;28;20823;-76
2022/09/02 04:32:44;;;;;;;6.80;6.33;;;;;;;;;;5070419;28;20563;-76
2022/09/02 04:35:11;;;;;;;7.77;7.17;;;;;;;;;;5070262;28;20452;-77
2022/09/02 04:37:38;;;;;;;7.70;7.00;;;;;;;;;;5070629;28;20488;-76
2022/09/02 04:40:05;;;;;;;7.23;6.60;;;;;;;;;;5074401;28;20440;-75
2022/09/02 04:42:32;;;;;;;7.40;6.80;;;;;;;;;;5074597;28;20440;-77
2022/09/02 04:45:00;;;;;;;7.57;6.90;;;;;;;;;;5074757;28;20451;-76
2022/09/02 04:47:27;;;;;;;7.20;6.50;;;;;;;;;;5074510;28;20460;-76
2022/09/02 04:49:55;;;;;;;6.83;6.20;;;;;;;;;;5074147;28;20452;-77
2022/09/02 04:52:22;;;;;;;6.73;6.10;;;;;;;;;;5074782;28;20448;-76
2022/09/02 04:54:49;;;;;;;6.33;5.83;;;;;;;;;;5074898;28;20549;-76
2022/09/02 04:57:16;;;;;;;6.27;5.83;;;;;;;;;;5075230;28;20479;-76
2022/09/02 04:59:43;;;;;;;7.27;6.77;;;;;;;;;;5075826;28;20464;-75
2022/09/02 05:02:10;;;;;;;6.17;5.67;;;;;;;;;;5075297;28;20432;-76
2022/09/02 05:04:37;;;;;;;6.70;6.10;;;;;;;;;;5082776;28;20486;-76
2022/09/02 05:07:06;;;;;;;6.80;6.30;;;;;;;;;;5100650;28;20464;-76
2022/09/02 05:09:33;;;;;;;8.17;6.53;;;;;;;;;;5100752;28;20499;-76
2022/09/02 05:12:03;;;;;;;7.63;7.03;;;;;;;;;;5100739;28;20438;-76
2022/09/02 05:14:31;;;;;;;7.17;6.57;;;;;;;;;;5100644;28;20416;-75
2022/09/02 05:16:59;;;;;;;7.63;6.93;;;;;;;;;;5100205;28;20494;-75
2022/09/02 05:19:26;;;;;;;8.50;6.20;;;;;;;;;;5100789;28;20439;-78
2022/09/02 05:21:54;;;;;;;6.93;6.20;;;;;;;;;;5100666;28;20527;-77
2022/09/02 05:24:23;;;;;;;6.70;6.10;;;;;;;;;;5100374;28;20428;-79
2022/09/02 05:26:50;;;;;;;6.37;5.77;;;;;;;;;;5090899;28;20482;-75
2022/09/02 05:29:19;;;;;;;7.37;6.23;;;;;;;;;;5077587;28;20452;-77
2022/09/02 05:31:46;;;;;;;6.77;6.37;;;;;;;;;;5076265;28;20445;-76
2022/09/02 05:34:14;;;;;;;7.00;6.40;;;;;;;;;;5074562;28;20437;-76
2022/09/02 05:36:41;;;;;;;8.10;6.33;;;;;;;;;;5073890;28;20529;-77
2022/09/02 05:39:08;;;;;;;6.50;5.90;;;;;;;;;;5074483;28;20488;-78
2022/09/02 05:41:37;;;;;;;7.03;6.30;;;;;;;;;;5076745;28;21166;-76
2022/09/02 05:44:05;;;;;;;7.23;6.50;;;;;;;;;;5074485;28;20528;-77
2022/09/02 05:46:32;;;;;;;8.03;7.33;;;;;;;;;;5073971;28;20571;-77
2022/09/02 05:49:16;;;;;;;8.00;7.30;;;;;;;;;;5073981;28;20437;-75
2022/09/02 05:51:45;;;;;;;11.67;7.63;;;;;;;;;;5073319;28;20471;-76
2022/09/02 05:54:13;;;;;;;8.10;7.47;;;;;;;;;;5074215;28;20828;-76
2022/09/02 05:56:42;;;;;;;8.83;7.17;;;;;;;;;;5073857;28;20483;-77
2022/09/02 05:59:09;;;;;;;10.63;6.70;;;;;;;;;;5073679;28;20488;-76
2022/09/02 06:01:37;;;;;;;7.50;6.87;;;;;;;;;;5075210;28;20456;-77
2022/09/02 06:04:05;;;;;;;6.60;6.20;;;;;;;;;;5073919;28;20452;-76
2022/09/02 06:06:32;;;;;;;7.17;6.47;;;;;;;;;;5073863;28;21136;-76
2022/09/02 06:09:00;;;;;;;8.40;7.60;;;;;;;;;;5074016;28;20493;-77
2022/09/02 06:11:28;;;;;;;7.50;7.00;;;;;;;;;;5073959;28;20468;-76
2022/09/02 06:13:56;;;;;;;8.03;6.90;;;;;;;;;;5073130;28;20506;-77
2022/09/02 06:16:25;;;;;;;6.87;6.27;;;;;;;;;;5072573;28;20472;-75
2022/09/02 06:18:52;;;;;;;6.53;5.93;;;;;;;;;;5072185;28;20524;-77
2022/09/02 06:21:19;;;;;;;6.90;6.20;;;;;;;;;;5072261;28;20936;-76
2022/09/02 06:23:47;;;;;;;6.07;5.57;;;;;;;;;;5072270;28;20515;-76
2022/09/02 06:26:14;;;;;;;8.87;6.10;;;;;;;;;;5072940;28;20437;-76
2022/09/02 06:28:42;;;;;;;7.57;6.30;;;;;;;;;;5072777;28;20464;-76
2022/09/02 06:31:11;;;;;;;7.50;6.80;;;;;;;;;;5072782;28;20445;-76
2022/09/02 06:33:39;;;;;;;6.40;5.90;;;;;;;;;;5072185;28;20445;-76
2022/09/02 06:36:07;;;;;;;5.60;5.20;;;;;;;;;;5071578;28;20451;-76
2022/09/02 06:38:36;;;;;;;6.20;5.70;;;;;;;;;;5072626;28;20583;-76
2022/09/02 06:41:04;;;;;;;7.03;6.47;;;;;;;;;;5072448;28;20449;-76
2022/09/02 06:43:31;;;;;;;6.83;5.80;;;;;;;;;;5072549;28;20494;-77
2022/09/02 06:45:58;;;;;;;6.87;5.87;;;;;;;;;;5072118;28;21002;-76
2022/09/02 06:48:27;;;;;;;5.80;5.30;;;;;;;;;;5072334;28;20452;-76
2022/09/02 06:50:54;;;;;;;7.10;5.83;;;;;;;;;;5072102;28;20491;-76
2022/09/02 06:53:21;;;;;;;5.87;5.47;;;;;;;;;;5071915;28;20562;-77
2022/09/02 06:55:48;;;;;;;5.80;5.40;;;;;;;;;;5071507;28;20502;-75
2022/09/02 06:58:15;;;;;;;5.47;5.07;;;;;;;;;;5072033;28;20485;-76
2022/09/02 07:00:43;;;;;;;5.33;4.80;;;;;;;;;;5071892;28;20448;-76
2022/09/02 07:06:08;;;;;;;5.30;4.80;;;;;;;;;;5072290;28;20809;-75
2022/09/02 07:08:35;;;;;;;4.47;4.07;;;;;;;;;;5073516;28;20524;-75
2022/09/02 07:11:02;;;;;;;5.37;5.00;;;;;;;;;;5079675;28;20440;-76
2022/09/02 07:13:29;;;;;;;5.20;4.80;;;;;;;;;;5094039;28;20437;-76
2022/09/02 07:15:56;;;;;;;4.97;4.57;;;;;;;;;;5091362;28;20433;-77
2022/09/02 07:18:23;;;;;;;4.83;4.40;;;;;;;;;;5088199;28;20555;-76
2022/09/02 07:20:51;;;;;;;4.70;4.40;;;;;;;;;;5092424;28;20451;-75
2022/09/02 07:23:19;;;;;;;6.23;4.40;;;;;;;;;;5090382;28;20437;-76
2022/09/02 07:25:46;;;;;;;6.20;5.50;;;;;;;;;;5076881;28;20932;-77
2022/09/02 07:28:13;;;;;;;14.83;7.20;;;;;;;;;;5073083;28;20457;-76
2022/09/02 07:30:41;;;;;;;4.97;4.57;;;;;;;;;;5072306;28;20452;-77
2022/09/02 07:33:08;;;;;;;4.70;4.30;;;;;;;;;;5071810;28;20444;-76
2022/09/02 07:35:37;;;;;;;4.50;4.17;;;;;;;;;;5072123;28;20441;-75
2022/09/02 07:38:04;;;;;;;4.67;4.27;;;;;;;;;;5072240;28;20899;-76
2022/09/02 07:40:35;;;;;;;6.03;4.60;;;;;;;;;;5071490;28;20452;-76
2022/09/02 07:43:02;;;;;;;9.10;4.47;;;;;;;;;;5072508;28;20476;-76
2022/09/02 07:45:29;;;;;;;4.60;4.00;;;;;;;;;;5075231;28;20444;-75
2022/09/02 07:47:56;;;;;;;4.13;3.90;;;;;;;;;;5075148;28;20464;-75
2022/09/02 07:50:25;;;;;;;5.20;4.70;;;;;;;;;;5072443;28;20449;-75
2022/09/02 07:52:53;;;;;;;4.93;4.43;;;;;;;;;;5070799;28;20528;-76
2022/09/02 07:55:20;;;;;;;4.10;3.70;;;;;;;;;;5056950;28;20441;-76
2022/09/02 07:57:49;;;;;;;4.03;3.73;;;;;;;;;;5072935;28;21096;-76
2022/09/02 08:00:18;;;;;;;4.10;3.80;;;;;;;;;;5071548;28;20998;-76
2022/09/02 08:02:45;;;;;;;3.43;3.20;;;;;;;;;;5071212;28;20463;-77
2022/09/02 08:05:12;;;;;;;3.60;3.40;;;;;;;;;;5067576;28;20457;-76
2022/09/02 08:07:39;;;;;;;3.10;2.90;;;;;;;;;;5065967;28;21066;-76
2022/09/02 08:10:09;;;;;;;3.70;3.50;;;;;;;;;;5071341;28;20439;-76
2022/09/02 08:12:36;;;;;;;3.70;3.20;;;;;;;;;;5070932;28;20460;-77
2022/09/02 08:15:05;;;;;;;3.10;2.90;;;;;;;;;;5071066;28;20530;-75
2022/09/02 08:17:32;;;;;;;3.13;2.93;;;;;;;;;;5071579;28;20483;-76
2022/09/02 08:19:59;;;;;;;3.60;3.40;;;;;;;;;;5071279;28;20476;-76
2022/09/02 08:22:26;;;;;;;3.47;3.17;;;;;;;;;;5071208;28;20445;-77
2022/09/02 08:24:53;;;;;;;3.60;3.13;;;;;;;;;;5071149;28;20501;-76
2022/09/02 08:27:21;;;;;;;4.17;3.87;;;;;;;;;;5071160;28;21014;-76
2022/09/02 08:29:48;;;;;;;3.03;2.83;;;;;;;;;;5071373;28;20453;-76
2022/09/02 08:32:16;;;;;;;3.27;2.97;;;;;;;;;;5073548;28;20514;-75
2022/09/02 08:34:43;;;;;;;3.47;2.80;;;;;;;;;;5088997;28;20441;-76
2022/09/02 08:37:10;;;;;;;5.30;3.50;;;;;;;;;;5094519;28;20451;-75
2022/09/02 08:39:37;;;;;;;7.30;3.83;;;;;;;;;;5097056;28;20468;-75
2022/09/02 08:42:08;;;;;;;5.07;3.50;;;;;;;;;;5096792;28;20463;-75
2022/09/02 08:44:38;;;;;;;2.53;2.43;;;;;;;;;;5095365;28;20455;-77
2022/09/02 08:47:07;;;;;;;2.70;2.00;;;;;;;;;;5095866;28;20472;-76
2022/09/02 08:49:39;;;;;;;2.73;2.30;;;;;;;;;;5091393;28;20476;-76
2022/09/02 08:52:06;;;;;;;3.47;2.70;;;;;;;;;;5083486;28;20452;-76
2022/09/02 08:54:37;;;;;;;2.07;1.87;;;;;;;;;;5076882;28;20437;-76
2022/09/02 08:57:06;;;;;;;2.10;2.00;;;;;;;;;;5076351;28;20472;-75
2022/09/02 08:59:33;;;;;;;2.03;1.80;;;;;;;;;;5080326;28;20477;-76
2022/09/02 09:02:05;;;;;;;2.63;2.33;;;;;;;;;;5080625;28;20448;-76
2022/09/02 09:04:41;;;;;;;2.83;2.27;;;;;;;;;;5081652;28;20512;-75
2022/09/02 09:07:13;;;;;;;1.77;1.77;;;;;;;;;;5083416;28;20486;-76
2022/09/02 09:09:46;;;;;;;1.80;1.70;;;;;;;;;;5080627;28;20451;-76
2022/09/02 09:12:15;;;;;;;2.30;2.10;;;;;;;;;;5071958;28;20432;-76
2022/09/02 09:14:47;;;;;;;2.10;1.90;;;;;;;;;;5072439;28;20452;-75
2022/09/02 09:17:18;;;;;;;1.60;1.50;;;;;;;;;;5072622;28;20861;-78
2022/09/02 09:19:50;;;;;;;5.30;1.97;;;;;;;;;;5070945;28;20573;-75
2022/09/02 09:22:19;;;;;;;4.33;1.80;;;;;;;;;;5071279;28;20529;-75
2022/09/02 09:24:46;;;;;;;3.73;2.30;;;;;;;;;;5070600;28;20514;-76
2022/09/02 09:27:14;;;;;;;4.07;2.10;;;;;;;;;;5074952;28;20464;-76
2022/09/02 09:29:42;;;;;;;2.00;1.90;;;;;;;;;;5062086;28;20453;-76
2022/09/02 09:32:16;;;;;;;1.77;1.67;;;;;;;;;;5056871;28;20445;-76
2022/09/02 09:34:55;;;;;;;1.63;1.53;;;;;;;;;;5067498;28;20445;-76
2022/09/02 09:37:28;;;;;;;1.60;1.60;;;;;;;;;;5075855;28;20476;-76
2022/09/02 09:39:55;;;;;;;1.90;1.80;;;;;;;;;;5076442;28;20483;-76
2022/09/02 09:42:30;;;;;;;1.90;1.70;;;;;;;;;;5091041;28;21353;-76
2022/09/02 09:44:57;;;;;;;1.83;1.73;;;;;;;;;;5082655;28;20416;-76
2022/09/02 09:47:25;;;;;;;1.60;1.60;;;;;;;;;;5082356;28;20503;-75
2022/09/02 09:49:54;;;;;;;3.03;2.30;;;;;;;;;;5078675;28;20437;-76
2022/09/02 09:52:25;;;;;;;2.07;1.80;;;;;;;;;;5079750;28;20445;-75
2022/09/02 09:55:11;;;;;;;2.23;1.60;;;;;;;;;;5069216;28;20584;-75
2022/09/02 09:57:38;;;;;;;1.70;1.60;;;;;;;;;;5077976;28;20511;-76
2022/09/02 10:00:11;;;;;;;1.83;1.70;;;;;;;;;;5077893;28;21051;-76
2022/09/02 10:02:46;;;;;;;5.13;1.50;;;;;;;;;;5082769;28;20429;-76
2022/09/02 10:05:20;;;;;;;1.63;1.53;;;;;;;;;;5093487;28;20483;-75
2022/09/02 10:07:54;;;;;;;1.60;1.50;;;;;;;;;;5084310;28;20480;-76
2022/09/02 10:10:22;;;;;;;1.57;1.47;;;;;;;;;;5063072;28;20453;-75
2022/09/02 10:12:50;;;;;;;1.90;1.80;;;;;;;;;;5061865;28;20448;-76
2022/09/02 10:15:32;;;;;;;1.70;1.60;;;;;;;;;;5092587;28;20441;-75
2022/09/02 10:18:05;;;;;;;2.30;1.97;;;;;;;;;;5089847;28;20445;-76
2022/09/02 10:20:40;;;;;;;1.47;1.40;;;;;;;;;;5089956;28;20472;-77
2022/09/02 10:23:18;;;;;;;1.60;1.50;;;;;;;;;;5089057;28;20448;-77
2022/09/02 10:25:52;;;;;;;1.40;1.30;;;;;;;;;;5088670;28;21115;-77
2022/09/02 10:28:27;;;;;;;1.93;1.70;;;;;;;;;;5092793;28;20491;-77
2022/09/02 10:31:00;;;;;;;1.40;1.40;;;;;;;;;;5089673;28;20436;-76
2022/09/02 10:33:31;;;;;;;2.10;1.27;;;;;;;;;;5073701;28;20455;-76
2022/09/02 10:36:05;;;;;;;1.37;1.27;;;;;;;;;;5072774;28;20448;-76
2022/09/02 10:38:37;;;;;;;1.10;1.10;;;;;;;;;;5073305;28;20470;-76
2022/09/02 10:41:07;;;;;;;2.50;1.40;;;;;;;;;;5072908;28;20444;-76
2022/09/02 10:43:43;;;;;;;1.83;1.43;;;;;;;;;;5072904;28;20445;-76
2022/09/02 10:46:10;;;;;;;5.20;1.30;;;;;;;;;;5072480;28;20448;-76
2022/09/02 10:48:45;;;;;;;1.30;1.30;;;;;;;;;;5072886;28;20558;-76
2022/09/02 10:51:16;;;;;;;2.40;1.67;;;;;;;;;;5072382;28;20472;-76
2022/09/02 10:53:52;;;;;;;1.30;1.20;;;;;;;;;;5071948;28;20536;-76
2022/09/02 10:56:22;;;;;;;1.53;1.10;;;;;;;;;;5072666;28;20513;-76
2022/09/02 10:58:54;;;;;;;1.57;1.47;;;;;;;;;;5072014;28;20968;-76
2022/09/02 11:01:24;;;;;;;1.60;1.50;;;;;;;;;;5083185;28;20436;-76
2022/09/02 11:03:59;;;;;;;1.73;1.60;;;;;;;;;;5081597;28;20444;-77
2022/09/02 11:06:29;;;;;;;1.80;1.30;;;;;;;;;;5081576;28;21015;-76
2022/09/02 11:08:58;;;;;;;2.03;1.40;;;;;;;;;;5080867;28;20498;-77
2022/09/02 11:11:28;;;;;;;1.50;1.40;;;;;;;;;;5082131;28;20441;-77
2022/09/02 11:13:59;;;;;;;1.73;1.60;;;;;;;;;;5082038;28;20448;-77
2022/09/02 11:16:29;;;;;;;1.37;1.30;;;;;;;;;;5081708;28;20475;-76
2022/09/02 11:19:01;;;;;;;1.70;1.60;;;;;;;;;;5074329;28;20449;-76
2022/09/02 11:21:35;;;;;;;1.90;1.80;;;;;;;;;;5072424;28;20527;-76
2022/09/02 11:24:04;;;;;;;3.33;1.40;;;;;;;;;;5072193;28;20425;-76
2022/09/02 11:26:36;;;;;;;2.77;1.63;;;;;;;;;;5071812;28;20456;-75
2022/09/02 11:29:05;;;;;;;1.33;1.33;;;;;;;;;;5071730;28;20429;-76
2022/09/02 11:31:35;;;;;;;1.87;1.70;;;;;;;;;;5071449;28;20630;-75
2022/09/02 11:34:05;;;;;;;1.53;1.30;;;;;;;;;;5071914;28;20452;-76
2022/09/02 11:36:37;;;;;;;1.90;1.70;;;;;;;;;;5072139;28;20518;-76
2022/09/02 11:39:08;;;;;;;1.30;1.20;;;;;;;;;;5071918;28;20537;-77
2022/09/02 11:41:44;;;;;;;1.77;1.67;;;;;;;;;;5074030;28;20458;-76
2022/09/02 11:44:29;;;;;;;1.20;1.20;;;;;;;;;;5071111;28;20827;-77
2022/09/02 11:47:01;;;;;;;1.50;1.40;;;;;;;;;;5072401;28;20499;-75
2022/09/02 11:49:55;;;;;;;2.97;1.50;;;;;;;;;;5072896;28;20428;-77
2022/09/02 11:52:28;;;;;;;1.60;1.50;;;;;;;;;;5037625;28;20455;-76
2022/09/02 11:55:02;;;;;;;5.83;5.43;;;;;;;;;;5071814;28;20474;-75
2022/09/02 11:57:29;;;;;;;2.10;1.60;;;;;;;;;;5071376;28;20828;-75
2022/09/02 12:00:08;;;;;;;3.27;2.60;;;;;;;;;;5071205;28;20477;-78
2022/09/02 12:02:38;;;;;;;3.17;1.67;;;;;;;;;;5071194;28;20498;-75
2022/09/02 12:05:24;;;;;;;3.30;3.10;;;;;;;;;;5071114;28;21058;-76
2022/09/02 12:07:54;;;;;;;1.90;1.80;;;;;;;;;;5070840;28;20471;-77
2022/09/02 12:10:36;;;;;;;1.60;1.50;;;;;;;;;;5069506;28;20510;-76
2022/09/02 12:13:04;;;;;;;2.63;1.70;;;;;;;;;;5051689;28;20442;-76
2022/09/02 12:15:31;;;;;;;1.70;1.37;;;;;;;;;;5051893;28;20956;-75
2022/09/02 12:18:11;;;;;;;1.40;1.30;;;;;;;;;;5051889;28;20560;-76
2022/09/02 12:21:00;;;;;;;1.63;1.53;;;;;;;;;;5053320;28;20527;-76
2022/09/02 12:23:45;;;;;;;1.57;1.47;;;;;;;;;;5053138;28;20445;-76
2022/09/02 12:26:14;;;;;;;1.30;1.20;;;;;;;;;;5065906;28;20449;-78
2022/09/02 12:28:41;;;;;;;1.40;1.30;;;;;;;;;;5075568;28;20441;-78
2022/09/02 12:31:11;;;;;;;2.17;1.60;;;;;;;;;;5075757;28;20652;-77
2022/09/02 12:33:39;;;;;;;3.47;3.13;;;;;;;;;;5075270;28;20430;-78
2022/09/02 12:36:07;;;;;;;2.83;2.60;;;;;;;;;;5075736;28;20455;-78
2022/09/02 12:38:38;;;;;;;1.87;1.70;;;;;;;;;;5075441;28;20723;-78
2022/09/02 12:41:25;;;;;;;1.57;1.47;;;;;;;;;;5075828;28;20507;-78
2022/09/02 12:43:56;;;;;;;1.70;1.60;;;;;;;;;;5075514;28;20426;-77
2022/09/02 12:46:30;;;;;;;2.33;2.13;;;;;;;;;;5075830;28;20464;-77
2022/09/02 12:49:00;;;;;;;1.97;1.50;;;;;;;;;;5075596;28;20509;-78
2022/09/02 12:51:45;;;;;;;1.07;1.03;;;;;;;;;;5075362;28;20452;-77
2022/09/02 12:54:13;;;;;;;1.73;1.60;;;;;;;;;;5068314;28;20429;-78
2022/09/02 12:56:48;;;;;;;1.47;1.37;;;;;;;;;;5074999;28;20464;-78
2022/09/02 12:59:24;;;;;;;2.20;2.00;;;;;;;;;;5065411;28;20784;-75
2022/09/02 13:01:58;;;;;;;2.20;2.00;;;;;;;;;;5060737;28;20483;-76
2022/09/02 13:04:28;;;;;;;1.90;1.40;;;;;;;;;;5057552;28;20449;-77
2022/09/02 13:07:12;;;;;;;1.87;1.77;;;;;;;;;;5054633;28;20465;-77
2022/09/02 13:09:49;;;;;;;2.43;1.70;;;;;;;;;;5054655;28;20444;-77
2022/09/02 13:12:29;;;;;;;2.60;1.70;;;;;;;;;;5073003;28;20448;-78
2022/09/02 13:15:02;;;;;;;1.40;1.20;;;;;;;;;;5089432;28;20448;-76
2022/09/02 13:17:45;;;;;;;1.70;1.60;;;;;;;;;;5091219;28;20982;-77
2022/09/02 13:20:30;;;;;;;1.67;1.57;;;;;;;;;;5091876;28;20484;-78
2022/09/02 13:23:05;;;;;;;1.57;1.50;;;;;;;;;;5090145;28;20443;-77
2022/09/02 13:25:42;;;;;;;1.10;1.10;;;;;;;;;;5074211;28;20476;-77
2022/09/02 13:28:20;;;;;;;1.40;1.40;;;;;;;;;;5073641;28;20518;-77
2022/09/02 13:31:02;;;;;;;1.63;1.47;;;;;;;;;;5073832;28;20475;-77
2022/09/02 13:33:29;;;;;;;1.30;1.20;;;;;;;;;;5073347;28;20544;-76
2022/09/02 13:35:58;;;;;;;1.83;1.73;;;;;;;;;;5073511;28;20444;-76
2022/09/02 13:38:26;;;;;;;1.53;1.43;;;;;;;;;;5073439;28;20449;-77
2022/09/02 13:40:53;;;;;;;1.20;1.20;;;;;;;;;;5072980;28;21057;-77
2022/09/02 13:43:24;;;;;;;1.63;1.50;;;;;;;;;;5072851;28;20517;-76
2022/09/02 13:45:51;;;;;;;2.40;1.60;;;;;;;;;;5073583;28;20428;-76
2022/09/02 13:48:19;;;;;;;1.67;1.57;;;;;;;;;;5072878;28;20472;-77
2022/09/02 13:50:47;;;;;;;1.40;1.40;;;;;;;;;;5073042;28;20444;-76
2022/09/02 13:53:17;;;;;;;1.60;1.50;;;;;;;;;;5072688;28;20467;-77
2022/09/02 13:55:48;;;;;;;1.77;1.33;;;;;;;;;;5072899;28;20452;-77
2022/09/02 13:58:22;;;;;;;1.50;1.40;;;;;;;;;;5072746;28;20994;-77
2022/09/02 14:00:50;;;;;;;1.60;1.50;;;;;;;;;;5072656;28;20875;-78
2022/09/02 14:03:19;;;;;;;1.57;1.47;;;;;;;;;;5072356;28;20436;-78
2022/09/02 14:05:48;;;;;;;1.70;1.60;;;;;;;;;;5073180;28;20539;-76
2022/09/02 14:08:16;;;;;;;1.80;1.60;;;;;;;;;;5073244;28;20465;-76
2022/09/02 14:10:44;;;;;;;2.23;1.70;;;;;;;;;;5071101;28;20491;-77
2022/09/02 14:13:13;;;;;;;1.27;1.27;;;;;;;;;;5059493;28;20442;-76
2022/09/02 14:15:40;;;;;;;1.60;1.50;;;;;;;;;;5062108;28;20486;-76
2022/09/02 14:18:08;;;;;;;1.70;1.60;;;;;;;;;;5058172;28;20834;-77
2022/09/02 14:20:37;;;;;;;2.47;1.67;;;;;;;;;;5059532;28;20520;-77
2022/09/02 14:23:04;;;;;;;1.30;1.30;;;;;;;;;;5059178;28;20445;-77
2022/09/02 14:25:35;;;;;;;1.73;1.63;;;;;;;;;;5071259;28;20442;-76
2022/09/02 14:28:04;;;;;;;1.43;1.40;;;;;;;;;;5070489;28;20541;-78
2022/09/02 14:30:33;;;;;;;1.70;1.60;;;;;;;;;;5075596;28;21081;-77
2022/09/02 14:33:19;;;;;;;1.43;1.43;;;;;;;;;;5076768;28;20485;-78
2022/09/02 14:35:56;;;;;;;1.77;1.50;;;;;;;;;;5077641;28;20425;-78
2022/09/02 14:38:24;;;;;;;2.13;1.67;;;;;;;;;;5074778;28;20460;-78
2022/09/02 14:40:59;;;;;;;1.83;1.50;;;;;;;;;;5072237;28;20465;-76
2022/09/02 14:43:26;;;;;;;2.00;1.90;;;;;;;;;;5065405;28;20441;-77
2022/09/02 14:46:04;;;;;;;1.40;1.40;;;;;;;;;;5068428;28;20430;-77
2022/09/02 14:48:33;;;;;;;1.93;1.77;;;;;;;;;;5069328;28;20425;-77
2022/09/02 14:51:03;;;;;;;1.77;1.67;;;;;;;;;;5070396;28;20434;-78
2022/09/02 14:53:31;;;;;;;2.13;1.97;;;;;;;;;;5074507;28;20445;-78
2022/09/02 14:55:58;;;;;;;2.40;1.53;;;;;;;;;;5075327;28;20482;-78
2022/09/02 14:58:27;;;;;;;2.33;1.40;;;;;;;;;;5069076;28;20437;-78
2022/09/02 15:00:55;;;;;;;1.80;1.50;;;;;;;;;;5064532;28;20465;-77